Terminal Aerodrome Forecast
Issued by NWS Grand Forks, ND

Home | Current Version | Previous Version | Text Only | Print | Product List | Glossary On
Versions: 1 2 3 4 5 6 7 8 9 10 11 12 13 14 15 16 17 18 19 20
000
FTUS43 KFGF 261900 AAA
TAFGFK
TAF AMD
KGFK 261918Z 2619/2718 35019G26KT P6SM BKN013 OVC020
     FM270000 34006KT P6SM OVC015
     FM271000 17006KT P6SM BKN050=

USA.gov is the U.S. government's official web portal to all federal, state and local government web resources and services.